createdAt,value
2023-03-06T00:01:54.718Z,74.70
2023-03-06T00:04:21.620Z,74.60
2023-03-06T00:06:48.489Z,74.60
2023-03-06T00:09:15.129Z,74.60
2023-03-06T00:11:42.089Z,74.80
2023-03-06T00:14:08.799Z,75.30
2023-03-06T00:16:35.556Z,75.40
2023-03-06T00:19:02.232Z,75.60
2023-03-06T00:21:28.886Z,75.90
2023-03-06T00:23:55.604Z,75.80
2023-03-06T00:26:22.517Z,76.00
2023-03-06T00:28:49.188Z,75.80
2023-03-06T00:31:17.181Z,76.10
2023-03-06T00:33:44.088Z,75.90
2023-03-06T00:36:10.861Z,75.80
2023-03-06T00:38:37.547Z,76.20
2023-03-06T00:41:11.264Z,76.10
2023-03-06T00:43:37.988Z,75.80
2023-03-06T00:46:05.779Z,76.10
2023-03-06T00:48:34.420Z,76.50
2023-03-06T00:51:03.684Z,76.30
2023-03-06T00:53:30.592Z,76.20
2023-03-06T00:55:57.348Z,75.90
2023-03-06T00:58:24.064Z,76.00
2023-03-06T01:00:51.045Z,75.80
2023-03-06T01:03:17.778Z,75.60
2023-03-06T01:05:44.562Z,75.70
2023-03-06T01:08:11.239Z,75.70
2023-03-06T01:10:40.614Z,75.70
2023-03-06T01:13:07.446Z,75.40
2023-03-06T01:15:34.159Z,75.30
2023-03-06T01:18:00.900Z,75.20
2023-03-06T01:20:28.401Z,75.20
2023-03-06T01:22:56.835Z,75.50
2023-03-06T01:25:24.484Z,75.40
2023-03-06T01:27:51.528Z,75.60
2023-03-06T01:30:18.212Z,76.10
2023-03-06T01:32:45.164Z,75.90
2023-03-06T01:35:12.598Z,76.00
2023-03-06T01:37:40.181Z,76.10
2023-03-06T01:40:08.291Z,76.50
2023-03-06T01:42:34.944Z,76.40
2023-03-06T01:45:08.010Z,76.30
2023-03-06T01:47:34.720Z,76.50
2023-03-06T01:50:03.842Z,76.70
2023-03-06T01:52:36.331Z,76.80
2023-03-06T01:55:05.403Z,76.90
2023-03-06T01:57:41.119Z,77.30
2023-03-06T02:00:12.892Z,77.10
2023-03-06T02:02:40.761Z,77.40
2023-03-06T02:05:08.449Z,77.30
2023-03-06T02:07:36.303Z,77.80
2023-03-06T02:10:03.046Z,77.30
2023-03-06T02:12:30.346Z,77.50
2023-03-06T02:14:57.055Z,77.10
2023-03-06T02:17:24.138Z,77.30
2023-03-06T02:20:09.887Z,77.40
2023-03-06T02:22:39.543Z,77.40
2023-03-06T02:25:32.791Z,77.30
2023-03-06T02:27:59.824Z,77.30
2023-03-06T02:30:27.247Z,77.30
2023-03-06T02:32:54.104Z,77.50
2023-03-06T02:35:25.655Z,77.80
2023-03-06T02:37:52.805Z,77.70
2023-03-06T02:40:20.638Z,78.20
2023-03-06T02:42:48.853Z,77.70
2023-03-06T02:45:19.473Z,77.50
2023-03-06T02:47:47.222Z,77.40
2023-03-06T02:50:13.941Z,78.10
2023-03-06T02:52:40.875Z,77.80
2023-03-06T02:55:08.081Z,78.00
2023-03-06T02:57:34.697Z,77.70
2023-03-06T03:00:01.608Z,77.60
2023-03-06T03:02:28.245Z,77.60
2023-03-06T03:04:55.311Z,78.10
2023-03-06T03:07:22.057Z,78.30
2023-03-06T03:09:49.102Z,77.90
2023-03-06T03:12:15.798Z,78.00
2023-03-06T03:14:42.755Z,77.90
2023-03-06T03:17:09.784Z,78.10
2023-03-06T03:19:36.604Z,78.20
2023-03-06T03:22:03.235Z,78.00
2023-03-06T03:24:30.187Z,78.70
2023-03-06T03:26:57.105Z,78.50
2023-03-06T03:29:26.596Z,78.20
2023-03-06T03:31:53.454Z,78.80
2023-03-06T03:34:20.672Z,78.30
2023-03-06T03:36:47.538Z,78.20
2023-03-06T03:39:14.719Z,78.70
2023-03-06T03:41:41.716Z,78.50
2023-03-06T03:44:08.575Z,78.90
2023-03-06T03:46:35.745Z,79.30
2023-03-06T03:49:02.565Z,79.50
2023-03-06T03:51:29.387Z,79.10
2023-03-06T03:53:58.330Z,79.20
2023-03-06T03:56:25.051Z,79.10
2023-03-06T03:58:51.842Z,79.20
2023-03-06T04:01:18.822Z,79.30
2023-03-06T04:03:45.496Z,79.50
2023-03-06T04:06:12.121Z,79.60
2023-03-06T04:08:38.742Z,79.90
2023-03-06T04:11:05.681Z,79.70
2023-03-06T04:13:32.373Z,80.30
2023-03-06T04:15:59.911Z,80.10
2023-03-06T04:18:27.008Z,79.80
2023-03-06T04:20:56.326Z,79.80
2023-03-06T04:23:24.402Z,79.80
2023-03-06T04:25:51.159Z,80.30
2023-03-06T04:28:18.064Z,80.60
2023-03-06T04:30:44.920Z,80.20
2023-03-06T04:33:11.679Z,80.70
2023-03-06T04:35:38.805Z,80.40
2023-03-06T04:38:05.561Z,80.00
2023-03-06T04:40:34.004Z,80.40
2023-03-06T04:43:01.725Z,80.80
2023-03-06T04:45:28.758Z,81.10
2023-03-06T04:47:55.849Z,81.30
2023-03-06T04:50:22.642Z,80.90
2023-03-06T04:52:49.779Z,80.60
2023-03-06T04:55:17.032Z,81.30
2023-03-06T04:57:44.616Z,81.20
2023-03-06T05:00:14.453Z,81.30
2023-03-06T05:02:42.458Z,80.80
2023-03-06T05:05:09.574Z,81.00
2023-03-06T05:07:36.469Z,81.20
2023-03-06T05:10:04.331Z,81.30
2023-03-06T05:12:31.292Z,81.30
2023-03-06T05:14:59.308Z,81.40
2023-03-06T05:17:26.193Z,82.10
2023-03-06T05:19:54.843Z,81.80
2023-03-06T05:22:21.781Z,82.10
2023-03-06T05:24:48.497Z,82.00
2023-03-06T05:27:16.945Z,82.30
2023-03-06T05:29:44.008Z,82.40
2023-03-06T05:32:12.543Z,82.20
2023-03-06T05:34:39.834Z,82.60
2023-03-06T05:37:06.444Z,82.00
2023-03-06T05:39:33.382Z,81.90
2023-03-06T05:42:00.057Z,82.30
2023-03-06T05:44:33.633Z,82.20
2023-03-06T05:47:00.899Z,81.90
2023-03-06T05:49:31.684Z,82.20
2023-03-06T05:51:58.613Z,82.30
2023-03-06T05:54:26.731Z,82.00
2023-03-06T05:56:53.587Z,81.90
2023-03-06T05:59:20.424Z,81.90
2023-03-06T06:01:47.395Z,82.10
2023-03-06T06:04:14.285Z,82.50
2023-03-06T06:06:41.114Z,82.50
2023-03-06T06:09:07.975Z,83.00
2023-03-06T06:11:34.828Z,82.70
2023-03-06T06:14:01.732Z,82.40
2023-03-06T06:16:28.364Z,82.30
2023-03-06T06:18:54.989Z,82.80
2023-03-06T06:21:21.719Z,83.10
2023-03-06T06:23:48.428Z,83.30
2023-03-06T06:26:15.355Z,83.00
2023-03-06T06:28:42.165Z,83.50
2023-03-06T06:31:10.972Z,83.40
2023-03-06T06:33:38.398Z,83.50
2023-03-06T06:36:14.277Z,83.40
2023-03-06T06:38:40.882Z,83.30
2023-03-06T06:41:36.085Z,83.30
2023-03-06T06:43:59.014Z,83.30
2023-03-06T06:47:17.882Z,83.60
2023-03-06T06:49:14.422Z,83.20
2023-03-06T06:51:41.359Z,83.30
2023-03-06T06:54:08.739Z,83.10
2023-03-06T06:56:35.664Z,83.20
2023-03-06T06:59:15.761Z,82.90
2023-03-06T07:01:43.289Z,82.70
2023-03-06T07:04:11.813Z,82.50
2023-03-06T07:06:38.710Z,82.40
2023-03-06T07:09:08.044Z,81.50
2023-03-06T07:11:34.736Z,81.30
2023-03-06T07:14:02.080Z,80.90
2023-03-06T07:16:28.946Z,80.70
2023-03-06T07:18:55.679Z,80.20
2023-03-06T07:21:22.517Z,79.90
2023-03-06T07:23:49.361Z,79.70
2023-03-06T07:26:16.044Z,79.20
2023-03-06T07:28:52.030Z,78.70
2023-03-06T07:31:22.330Z,78.70
2023-03-06T07:33:49.969Z,78.70
2023-03-06T07:36:17.061Z,78.50
2023-03-06T07:38:44.055Z,78.20
2023-03-06T07:41:13.608Z,77.40
2023-03-06T07:43:41.537Z,77.20
2023-03-06T07:46:08.637Z,76.80
2023-03-06T07:48:36.308Z,76.60
2023-03-06T07:51:04.894Z,76.50
2023-03-06T07:53:32.414Z,76.20
2023-03-06T07:56:00.324Z,76.00
2023-03-06T07:58:26.983Z,76.00
2023-03-06T08:00:55.052Z,75.30
2023-03-06T08:03:21.652Z,75.20
2023-03-06T08:05:48.472Z,74.30
2023-03-06T08:08:15.095Z,73.90
2023-03-06T08:10:47.343Z,72.40
2023-03-06T08:13:15.403Z,72.20
2023-03-06T08:15:46.882Z,73.00
2023-03-06T08:18:13.479Z,71.90
2023-03-06T08:20:40.332Z,71.50
2023-03-06T08:23:07.042Z,71.70
2023-03-06T08:25:33.909Z,71.20
2023-03-06T08:28:01.132Z,70.90
2023-03-06T08:30:27.964Z,69.70
2023-03-06T08:32:54.636Z,68.70
2023-03-06T08:35:21.405Z,68.30
2023-03-06T08:37:48.218Z,66.50
2023-03-06T08:40:14.824Z,66.40
2023-03-06T08:42:44.254Z,65.80
2023-03-06T08:45:11.001Z,65.90
2023-03-06T08:47:37.946Z,65.30
2023-03-06T08:50:07.162Z,64.50
2023-03-06T08:52:33.833Z,63.80
2023-03-06T08:55:03.493Z,63.40
2023-03-06T08:57:30.668Z,61.90
2023-03-06T08:59:57.666Z,62.40
2023-03-06T09:02:24.547Z,62.40
2023-03-06T09:04:51.476Z,62.30
2023-03-06T09:07:18.628Z,62.40
2023-03-06T09:09:45.362Z,62.40
2023-03-06T09:12:12.377Z,63.00
2023-03-06T09:14:39.015Z,62.40
2023-03-06T09:17:05.864Z,62.80
2023-03-06T09:19:32.709Z,62.20
2023-03-06T09:22:01.570Z,62.40
2023-03-06T09:24:28.376Z,62.80
2023-03-06T09:26:56.214Z,62.80
2023-03-06T09:29:23.082Z,62.80
2023-03-06T09:31:50.179Z,62.50
2023-03-06T09:34:16.792Z,62.50
2023-03-06T09:36:56.025Z,62.40
2023-03-06T09:39:24.012Z,61.00
2023-03-06T09:41:51.443Z,60.40
2023-03-06T09:44:24.994Z,60.70
2023-03-06T09:47:01.470Z,60.60
2023-03-06T09:49:47.849Z,58.40
2023-03-06T09:52:30.250Z,58.70
2023-03-06T09:54:59.100Z,58.70
2023-03-06T09:57:25.954Z,58.90
2023-03-06T09:59:54.305Z,59.40
2023-03-06T10:02:24.886Z,59.90
2023-03-06T10:04:59.481Z,59.10
2023-03-06T10:07:33.523Z,59.20
2023-03-06T10:10:02.093Z,58.10
2023-03-06T10:12:35.229Z,58.50
2023-03-06T10:15:16.897Z,60.00
2023-03-06T10:17:43.796Z,59.10
2023-03-06T10:20:24.434Z,59.30
2023-03-06T10:23:00.996Z,59.90
2023-03-06T10:25:48.572Z,59.80
2023-03-06T10:28:21.151Z,59.50
2023-03-06T10:30:50.636Z,59.70
2023-03-06T10:33:17.568Z,59.50
2023-03-06T10:35:49.752Z,60.10
2023-03-06T10:38:19.702Z,59.60
2023-03-06T10:41:07.654Z,59.70
2023-03-06T10:43:44.581Z,59.10
2023-03-06T10:46:13.111Z,59.30
2023-03-06T10:48:42.376Z,59.20
2023-03-06T10:51:18.469Z,58.90
2023-03-06T10:53:50.299Z,58.60
2023-03-06T10:56:26.371Z,57.90
2023-03-06T10:59:12.678Z,57.90
2023-03-06T11:01:41.043Z,59.10
2023-03-06T11:04:28.115Z,59.70
2023-03-06T11:07:15.304Z,59.20
2023-03-06T11:09:43.282Z,58.40
2023-03-06T11:12:26.563Z,58.40
2023-03-06T11:15:12.534Z,59.00
2023-03-06T11:17:50.420Z,58.90
2023-03-06T11:20:35.762Z,57.30
2023-03-06T11:23:12.324Z,55.50
2023-03-06T11:25:48.275Z,55.50
2023-03-06T11:28:23.926Z,55.20
2023-03-06T11:30:59.565Z,55.20
2023-03-06T11:33:34.026Z,54.90
2023-03-06T11:36:05.544Z,55.50
2023-03-06T11:38:49.127Z,54.30
2023-03-06T11:41:36.011Z,52.30
2023-03-06T11:44:06.551Z,53.50
2023-03-06T11:46:36.606Z,53.60
2023-03-06T11:49:12.480Z,55.30
2023-03-06T11:51:42.068Z,55.00
2023-03-06T11:54:09.730Z,55.00
2023-03-06T11:56:44.357Z,54.40
2023-03-06T11:59:14.296Z,54.80
2023-03-06T12:01:43.956Z,53.50
2023-03-06T12:04:23.555Z,55.20
2023-03-06T12:07:08.567Z,53.80
2023-03-06T12:09:38.528Z,54.10
2023-03-06T12:12:08.321Z,54.20
2023-03-06T12:14:37.835Z,54.10
2023-03-06T12:17:18.921Z,53.70
2023-03-06T12:19:49.957Z,53.10
2023-03-06T12:22:16.737Z,53.60
2023-03-06T12:25:00.814Z,53.50
2023-03-06T12:27:42.345Z,52.40
2023-03-06T12:30:38.358Z,50.90
2023-03-06T12:33:05.129Z,52.10
2023-03-06T12:35:44.179Z,51.10
2023-03-06T12:38:23.543Z,52.40
2023-03-06T12:40:50.114Z,53.90
2023-03-06T12:43:35.576Z,54.60
2023-03-06T12:46:11.767Z,54.70
2023-03-06T12:48:39.433Z,53.50
2023-03-06T12:51:07.142Z,54.80
2023-03-06T12:53:34.433Z,54.70
2023-03-06T12:56:01.981Z,55.60
2023-03-06T12:58:29.132Z,55.70
2023-03-06T13:01:04.201Z,56.10
2023-03-06T13:03:31.286Z,56.10
2023-03-06T13:06:03.852Z,57.10
2023-03-06T13:08:30.447Z,55.20
2023-03-06T13:11:03.514Z,56.40
2023-03-06T13:13:41.138Z,57.30
2023-03-06T13:16:37.167Z,58.40
2023-03-06T13:19:10.558Z,58.60
2023-03-06T13:21:43.557Z,59.70
2023-03-06T13:24:22.404Z,59.50
2023-03-06T13:26:58.410Z,58.90
2023-03-06T13:29:37.530Z,58.90
2023-03-06T13:32:07.954Z,58.40
2023-03-06T13:34:36.149Z,58.80
2023-03-06T13:37:23.354Z,59.30
2023-03-06T13:39:55.817Z,58.50
2023-03-06T13:42:28.465Z,56.80
2023-03-06T13:44:55.970Z,57.00
2023-03-06T13:47:28.863Z,56.80
2023-03-06T13:49:57.063Z,55.20
2023-03-06T13:52:39.901Z,57.00
2023-03-06T13:55:15.047Z,56.90
2023-03-06T13:57:51.027Z,55.40
2023-03-06T14:00:36.509Z,55.30
2023-03-06T14:03:03.386Z,56.10
2023-03-06T14:05:49.377Z,56.10
2023-03-06T14:08:18.397Z,55.80
2023-03-06T14:10:48.199Z,56.80
2023-03-06T14:13:16.657Z,56.00
2023-03-06T14:15:45.012Z,56.60
2023-03-06T14:18:14.436Z,57.10
2023-03-06T14:20:46.701Z,57.00
2023-03-06T14:23:35.565Z,57.00
2023-03-06T14:26:15.607Z,56.40
2023-03-06T14:28:43.389Z,56.10
2023-03-06T14:31:18.447Z,56.50
2023-03-06T14:33:56.613Z,57.90
2023-03-06T14:36:26.141Z,57.60
2023-03-06T14:38:54.039Z,57.30
2023-03-06T14:41:31.910Z,56.90
2023-03-06T14:44:07.706Z,57.20
2023-03-06T14:46:34.405Z,57.80
2023-03-06T14:49:01.156Z,57.10
2023-03-06T14:51:28.231Z,57.10
2023-03-06T14:54:00.634Z,56.60
2023-03-06T14:56:27.487Z,58.20
2023-03-06T14:58:54.105Z,57.70
2023-03-06T15:01:27.895Z,57.20
2023-03-06T15:03:58.150Z,57.80
2023-03-06T15:06:35.666Z,57.90
2023-03-06T15:09:07.585Z,57.70
2023-03-06T15:11:55.198Z,58.50
2023-03-06T15:14:28.522Z,58.40
2023-03-06T15:16:55.381Z,58.10
2023-03-06T15:19:22.110Z,58.30
2023-03-06T15:21:51.793Z,59.10
2023-03-06T15:24:32.455Z,59.90
2023-03-06T15:27:01.243Z,60.30
2023-03-06T15:29:29.128Z,60.40
2023-03-06T15:32:19.288Z,60.10
2023-03-06T15:34:47.559Z,60.30
2023-03-06T15:37:27.187Z,60.70
2023-03-06T15:40:09.245Z,60.90
2023-03-06T15:42:36.707Z,61.20
2023-03-06T15:45:15.757Z,60.30
2023-03-06T15:47:43.388Z,60.20
2023-03-06T15:50:14.918Z,60.30
2023-03-06T15:52:42.447Z,59.90
2023-03-06T15:55:12.170Z,60.10
2023-03-06T15:57:43.621Z,60.20
2023-03-06T16:00:27.064Z,61.00
2023-03-06T16:02:55.149Z,61.30
2023-03-06T16:05:22.269Z,61.40
2023-03-06T16:07:49.187Z,61.60
2023-03-06T16:10:20.212Z,61.30
2023-03-06T16:12:51.330Z,62.20
2023-03-06T16:15:22.495Z,61.60
2023-03-06T16:17:52.087Z,61.30
2023-03-06T16:20:20.667Z,61.90
2023-03-06T16:22:48.392Z,62.10
2023-03-06T16:25:15.545Z,61.60
2023-03-06T16:27:43.108Z,62.10
2023-03-06T16:30:16.298Z,62.10
2023-03-06T16:32:43.594Z,62.00
2023-03-06T16:35:11.350Z,62.70
2023-03-06T16:37:38.913Z,62.70
2023-03-06T16:40:09.296Z,63.70
2023-03-06T16:42:36.099Z,63.50
2023-03-06T16:45:02.757Z,63.80
2023-03-06T16:47:30.590Z,64.00
2023-03-06T16:50:01.734Z,64.20
2023-03-06T16:52:28.766Z,64.30
2023-03-06T16:54:55.515Z,63.80
2023-03-06T16:57:22.213Z,63.80
2023-03-06T16:59:51.144Z,64.80
2023-03-06T17:02:17.801Z,64.60
2023-03-06T17:04:45.020Z,64.70
2023-03-06T17:07:11.911Z,64.70
2023-03-06T17:09:38.608Z,65.10
2023-03-06T17:12:07.033Z,65.30
2023-03-06T17:14:34.117Z,65.40
2023-03-06T17:17:01.209Z,66.10
2023-03-06T17:19:27.930Z,65.90
2023-03-06T17:21:54.572Z,66.10
2023-03-06T17:24:21.410Z,65.70
2023-03-06T17:26:48.490Z,66.00
2023-03-06T17:29:15.689Z,66.10
2023-03-06T17:31:42.282Z,66.20
2023-03-06T17:34:09.136Z,66.70
2023-03-06T17:36:35.993Z,67.30
2023-03-06T17:39:02.998Z,67.70
2023-03-06T17:41:29.924Z,67.70
2023-03-06T17:44:04.998Z,68.20
2023-03-06T17:46:32.125Z,68.80
2023-03-06T17:48:58.953Z,70.10
2023-03-06T17:51:25.881Z,70.90
2023-03-06T17:53:53.213Z,70.60
2023-03-06T17:56:19.878Z,70.70
2023-03-06T17:58:46.771Z,71.00
2023-03-06T18:01:17.788Z,70.80
2023-03-06T18:03:45.866Z,71.10
2023-03-06T18:06:12.627Z,71.20
2023-03-06T18:08:40.896Z,71.20
2023-03-06T18:11:09.911Z,71.30
2023-03-06T18:13:38.513Z,71.00
2023-03-06T18:16:05.719Z,71.80
2023-03-06T18:18:32.417Z,71.70
2023-03-06T18:21:03.386Z,71.90
2023-03-06T18:23:30.047Z,71.80
2023-03-06T18:26:08.838Z,72.10
2023-03-06T18:28:38.701Z,72.00
2023-03-06T18:31:08.571Z,71.10
2023-03-06T18:33:35.402Z,71.80
2023-03-06T18:36:03.715Z,72.00
2023-03-06T18:38:30.778Z,73.00
2023-03-06T18:40:57.605Z,71.90
2023-03-06T18:43:24.323Z,71.20
2023-03-06T18:45:57.839Z,72.60
2023-03-06T18:48:26.109Z,72.30
2023-03-06T18:50:53.814Z,72.00
2023-03-06T18:53:21.252Z,72.50
2023-03-06T18:55:49.113Z,72.60
2023-03-06T18:58:15.814Z,72.80
2023-03-06T19:00:43.415Z,72.50
2023-03-06T19:03:10.705Z,72.70
2023-03-06T19:05:48.896Z,73.20
2023-03-06T19:08:17.462Z,74.10
2023-03-06T19:10:48.678Z,73.80
2023-03-06T19:13:15.716Z,73.70
2023-03-06T19:15:46.670Z,73.10
2023-03-06T19:18:14.875Z,73.90
2023-03-06T19:20:41.724Z,74.20
2023-03-06T19:23:09.092Z,73.60
2023-03-06T19:25:36.372Z,74.00
2023-03-06T19:28:03.548Z,74.10
2023-03-06T19:30:30.202Z,73.50
2023-03-06T19:32:57.120Z,73.70
2023-03-06T19:35:24.744Z,74.50
2023-03-06T19:37:51.544Z,73.70
2023-03-06T19:40:18.434Z,73.70
2023-03-06T19:42:45.162Z,74.00
2023-03-06T19:45:12.090Z,75.00
2023-03-06T19:47:38.746Z,74.80
2023-03-06T19:50:05.545Z,75.00
2023-03-06T19:52:35.531Z,75.00
2023-03-06T19:55:03.844Z,74.80
2023-03-06T19:57:30.694Z,74.70
2023-03-06T19:59:58.625Z,74.40
2023-03-06T20:02:27.571Z,74.40
2023-03-06T20:04:54.760Z,74.80
2023-03-06T20:07:21.784Z,74.20
2023-03-06T20:09:48.576Z,73.80
2023-03-06T20:12:15.500Z,74.00
2023-03-06T20:14:42.409Z,74.70
2023-03-06T20:17:09.194Z,74.20
2023-03-06T20:19:36.515Z,74.40
2023-03-06T20:22:03.439Z,74.30
2023-03-06T20:24:30.417Z,73.90
2023-03-06T20:26:58.404Z,74.80
2023-03-06T20:29:27.968Z,74.40
2023-03-06T20:31:55.265Z,74.20
2023-03-06T20:34:22.918Z,74.50
2023-03-06T20:36:49.715Z,74.70
2023-03-06T20:39:18.106Z,74.20
2023-03-06T20:41:44.797Z,74.70
2023-03-06T20:44:16.890Z,74.40
2023-03-06T20:46:44.073Z,74.60
2023-03-06T20:49:11.843Z,74.20
2023-03-06T20:51:41.822Z,74.50
2023-03-06T20:54:11.230Z,74.70
2023-03-06T20:56:39.577Z,75.00
2023-03-06T20:59:06.601Z,75.60
2023-03-06T21:01:34.451Z,75.30
2023-03-06T21:04:04.461Z,75.60
2023-03-06T21:06:31.551Z,75.40
2023-03-06T21:08:58.680Z,75.20
2023-03-06T21:11:25.543Z,75.10
2023-03-06T21:13:53.229Z,75.20
2023-03-06T21:16:21.249Z,75.40
2023-03-06T21:18:48.190Z,76.00
2023-03-06T21:21:19.332Z,75.80
2023-03-06T21:23:47.009Z,75.90
2023-03-06T21:26:14.728Z,75.90
2023-03-06T21:28:41.666Z,75.60
2023-03-06T21:31:08.906Z,75.90
2023-03-06T21:33:36.201Z,76.20
2023-03-06T21:36:02.969Z,76.80
2023-03-06T21:38:30.937Z,76.70
2023-03-06T21:41:06.249Z,76.20
2023-03-06T21:43:33.041Z,76.70
2023-03-06T21:45:59.750Z,76.90
2023-03-06T21:48:26.344Z,77.40
2023-03-06T21:51:03.215Z,77.60
2023-03-06T21:53:29.814Z,77.00
2023-03-06T21:55:58.817Z,77.20
2023-03-06T21:58:25.474Z,77.10
2023-03-06T22:00:52.440Z,76.80
2023-03-06T22:03:19.210Z,76.50
2023-03-06T22:05:45.908Z,76.50
2023-03-06T22:08:12.907Z,76.80
2023-03-06T22:10:40.275Z,76.70
2023-03-06T22:13:07.121Z,76.50
2023-03-06T22:15:33.708Z,76.20
2023-03-06T22:18:00.514Z,76.30
2023-03-06T22:20:27.115Z,76.50
2023-03-06T22:22:54.135Z,76.30
2023-03-06T22:25:20.800Z,76.10
2023-03-06T22:27:47.525Z,76.10
2023-03-06T22:30:14.260Z,76.20
2023-03-06T22:32:40.946Z,76.10
2023-03-06T22:35:07.799Z,76.10
2023-03-06T22:37:34.467Z,76.40
2023-03-06T22:40:01.308Z,76.70
2023-03-06T22:42:28.606Z,76.50
2023-03-06T22:44:55.480Z,76.40
2023-03-06T22:47:22.103Z,76.40
2023-03-06T22:49:48.731Z,76.50
2023-03-06T22:52:15.440Z,76.10
2023-03-06T22:54:42.214Z,76.40
2023-03-06T22:57:08.826Z,76.10
2023-03-06T22:59:35.453Z,76.50
2023-03-06T23:02:02.142Z,76.20
2023-03-06T23:04:29.108Z,76.30
2023-03-06T23:06:55.790Z,76.40
2023-03-06T23:09:23.303Z,76.50
2023-03-06T23:11:50.382Z,77.00
2023-03-06T23:14:18.801Z,77.10
2023-03-06T23:16:45.603Z,76.90
2023-03-06T23:19:12.483Z,76.90
2023-03-06T23:21:39.057Z,76.80
2023-03-06T23:24:09.235Z,76.80
2023-03-06T23:26:36.381Z,76.40
2023-03-06T23:29:04.247Z,76.40
2023-03-06T23:31:32.987Z,76.30
2023-03-06T23:34:00.789Z,75.90
2023-03-06T23:36:27.826Z,75.70
2023-03-06T23:38:54.848Z,76.10
2023-03-06T23:41:23.859Z,76.00
2023-03-06T23:43:52.408Z,75.90
2023-03-06T23:46:22.337Z,76.20
2023-03-06T23:48:49.344Z,76.00
2023-03-06T23:51:18.191Z,76.00
2023-03-06T23:53:46.636Z,75.80
2023-03-06T23:56:13.729Z,76.00
2023-03-06T23:58:40.931Z,75.90
